sensor_id;sensor_type;location;lat;lon;timestamp;P1;durP1;ratioP1;P2;durP2;ratioP2
79747;SDS011;69232;47.488;19.268;2023-05-19T00:01:07;6.20;;;3.30;;
79747;SDS011;69232;47.488;19.268;2023-05-19T00:03:36;4.35;;;3.20;;
79747;SDS011;69232;47.488;19.268;2023-05-19T00:06:04;5.90;;;3.15;;
79747;SDS011;69232;47.488;19.268;2023-05-19T00:08:32;5.30;;;3.47;;
79747;SDS011;69232;47.488;19.268;2023-05-19T00:10:58;6.28;;;3.20;;
79747;SDS011;69232;47.488;19.268;2023-05-19T00:13:25;6.70;;;2.92;;
79747;SDS011;69232;47.488;19.268;2023-05-19T00:15:51;4.55;;;3.05;;
79747;SDS011;69232;47.488;19.268;2023-05-19T00:18:16;4.88;;;3.20;;
79747;SDS011;69232;47.488;19.268;2023-05-19T00:20:42;5.55;;;3.28;;
79747;SDS011;69232;47.488;19.268;2023-05-19T00:23:08;8.15;;;3.45;;
79747;SDS011;69232;47.488;19.268;2023-05-19T00:25:34;6.78;;;3.53;;
79747;SDS011;69232;47.488;19.268;2023-05-19T00:28:00;12.48;;;3.63;;
79747;SDS011;69232;47.488;19.268;2023-05-19T00:30:27;3.97;;;2.92;;
79747;SDS011;69232;47.488;19.268;2023-05-19T00:32:53;8.40;;;3.25;;
79747;SDS011;69232;47.488;19.268;2023-05-19T00:35:19;4.57;;;3.13;;
79747;SDS011;69232;47.488;19.268;2023-05-19T00:37:44;6.60;;;3.53;;
79747;SDS011;69232;47.488;19.268;2023-05-19T00:40:10;5.05;;;3.08;;
79747;SDS011;69232;47.488;19.268;2023-05-19T00:42:36;5.43;;;3.58;;
79747;SDS011;69232;47.488;19.268;2023-05-19T00:45:02;5.25;;;3.50;;
79747;SDS011;69232;47.488;19.268;2023-05-19T00:47:28;8.63;;;3.45;;
79747;SDS011;69232;47.488;19.268;2023-05-19T00:49:53;4.97;;;3.67;;
79747;SDS011;69232;47.488;19.268;2023-05-19T00:52:19;4.82;;;3.33;;
79747;SDS011;69232;47.488;19.268;2023-05-19T00:54:44;4.43;;;3.15;;
79747;SDS011;69232;47.488;19.268;2023-05-19T00:57:10;8.90;;;4.10;;
79747;SDS011;69232;47.488;19.268;2023-05-19T00:59:37;4.45;;;3.38;;
79747;SDS011;69232;47.488;19.268;2023-05-19T01:02:03;7.18;;;4.00;;
79747;SDS011;69232;47.488;19.268;2023-05-19T01:04:28;6.20;;;4.45;;
79747;SDS011;69232;47.488;19.268;2023-05-19T01:06:59;8.50;;;5.00;;
79747;SDS011;69232;47.488;19.268;2023-05-19T01:09:24;7.80;;;4.75;;
79747;SDS011;69232;47.488;19.268;2023-05-19T01:11:50;9.52;;;4.78;;
79747;SDS011;69232;47.488;19.268;2023-05-19T01:14:15;7.32;;;4.38;;
79747;SDS011;69232;47.488;19.268;2023-05-19T01:16:46;9.02;;;4.82;;
79747;SDS011;69232;47.488;19.268;2023-05-19T01:30:44;8.05;;;4.80;;
79747;SDS011;69232;47.488;19.268;2023-05-19T01:33:13;7.78;;;4.38;;
79747;SDS011;69232;47.488;19.268;2023-05-19T01:35:39;7.38;;;4.50;;
79747;SDS011;69232;47.488;19.268;2023-05-19T01:38:09;9.45;;;4.30;;
79747;SDS011;69232;47.488;19.268;2023-05-19T01:40:37;7.82;;;4.75;;
79747;SDS011;69232;47.488;19.268;2023-05-19T01:43:03;5.85;;;4.13;;
79747;SDS011;69232;47.488;19.268;2023-05-19T01:45:30;8.57;;;4.75;;
79747;SDS011;69232;47.488;19.268;2023-05-19T01:47:57;7.63;;;4.15;;
79747;SDS011;69232;47.488;19.268;2023-05-19T01:50:24;8.93;;;4.78;;
79747;SDS011;69232;47.488;19.268;2023-05-19T01:52:50;6.38;;;4.50;;
79747;SDS011;69232;47.488;19.268;2023-05-19T01:55:15;6.47;;;4.30;;
79747;SDS011;69232;47.488;19.268;2023-05-19T02:10:40;7.65;;;3.63;;
79747;SDS011;69232;47.488;19.268;2023-05-19T02:13:09;7.15;;;4.47;;
79747;SDS011;69232;47.488;19.268;2023-05-19T02:15:39;12.07;;;5.47;;
79747;SDS011;69232;47.488;19.268;2023-05-19T02:18:09;8.52;;;4.53;;
79747;SDS011;69232;47.488;19.268;2023-05-19T02:20:36;8.18;;;4.55;;
79747;SDS011;69232;47.488;19.268;2023-05-19T02:23:02;6.47;;;4.32;;
79747;SDS011;69232;47.488;19.268;2023-05-19T02:25:28;7.60;;;4.47;;
79747;SDS011;69232;47.488;19.268;2023-05-19T02:27:53;8.88;;;4.63;;
79747;SDS011;69232;47.488;19.268;2023-05-19T02:30:19;5.35;;;3.90;;
79747;SDS011;69232;47.488;19.268;2023-05-19T02:32:44;8.32;;;4.07;;
79747;SDS011;69232;47.488;19.268;2023-05-19T02:35:10;8.52;;;4.07;;
79747;SDS011;69232;47.488;19.268;2023-05-19T02:37:36;8.00;;;4.30;;
79747;SDS011;69232;47.488;19.268;2023-05-19T02:40:01;6.03;;;3.83;;
79747;SDS011;69232;47.488;19.268;2023-05-19T02:42:28;8.00;;;4.55;;
79747;SDS011;69232;47.488;19.268;2023-05-19T02:44:53;6.30;;;4.22;;
79747;SDS011;69232;47.488;19.268;2023-05-19T02:47:19;7.53;;;3.95;;
79747;SDS011;69232;47.488;19.268;2023-05-19T02:49:44;9.32;;;4.35;;
79747;SDS011;69232;47.488;19.268;2023-05-19T02:52:10;6.20;;;3.83;;
79747;SDS011;69232;47.488;19.268;2023-05-19T02:54:36;5.88;;;4.20;;
79747;SDS011;69232;47.488;19.268;2023-05-19T02:57:01;7.00;;;4.22;;
79747;SDS011;69232;47.488;19.268;2023-05-19T02:59:27;5.97;;;3.83;;
79747;SDS011;69232;47.488;19.268;2023-05-19T03:01:57;9.95;;;5.00;;
79747;SDS011;69232;47.488;19.268;2023-05-19T03:04:24;7.90;;;4.07;;
79747;SDS011;69232;47.488;19.268;2023-05-19T03:06:49;9.05;;;4.00;;
79747;SDS011;69232;47.488;19.268;2023-05-19T03:09:15;5.95;;;4.00;;
79747;SDS011;69232;47.488;19.268;2023-05-19T03:11:40;7.80;;;3.85;;
79747;SDS011;69232;47.488;19.268;2023-05-19T03:14:06;5.82;;;3.80;;
79747;SDS011;69232;47.488;19.268;2023-05-19T03:16:33;7.93;;;4.80;;
79747;SDS011;69232;47.488;19.268;2023-05-19T03:18:59;7.20;;;4.75;;
79747;SDS011;69232;47.488;19.268;2023-05-19T03:21:24;7.63;;;4.38;;
79747;SDS011;69232;47.488;19.268;2023-05-19T03:23:50;11.13;;;4.13;;
79747;SDS011;69232;47.488;19.268;2023-05-19T03:26:15;5.72;;;3.88;;
79747;SDS011;69232;47.488;19.268;2023-05-19T03:28:41;6.00;;;4.30;;
79747;SDS011;69232;47.488;19.268;2023-05-19T03:31:06;9.52;;;4.13;;
79747;SDS011;69232;47.488;19.268;2023-05-19T03:33:31;10.48;;;4.57;;
79747;SDS011;69232;47.488;19.268;2023-05-19T03:35:57;7.47;;;4.30;;
79747;SDS011;69232;47.488;19.268;2023-05-19T03:38:23;8.40;;;4.32;;
79747;SDS011;69232;47.488;19.268;2023-05-19T03:40:48;7.53;;;3.78;;
79747;SDS011;69232;47.488;19.268;2023-05-19T03:43:14;7.75;;;4.15;;
79747;SDS011;69232;47.488;19.268;2023-05-19T03:45:40;7.85;;;4.78;;
79747;SDS011;69232;47.488;19.268;2023-05-19T03:48:06;9.95;;;5.60;;
79747;SDS011;69232;47.488;19.268;2023-05-19T03:50:31;11.57;;;5.90;;
79747;SDS011;69232;47.488;19.268;2023-05-19T03:52:58;12.95;;;5.38;;
79747;SDS011;69232;47.488;19.268;2023-05-19T03:55:23;11.98;;;6.13;;
79747;SDS011;69232;47.488;19.268;2023-05-19T03:57:50;10.15;;;6.10;;
79747;SDS011;69232;47.488;19.268;2023-05-19T04:00:16;9.98;;;5.45;;
79747;SDS011;69232;47.488;19.268;2023-05-19T04:02:42;19.63;;;6.03;;
79747;SDS011;69232;47.488;19.268;2023-05-19T04:05:08;11.27;;;5.72;;
79747;SDS011;69232;47.488;19.268;2023-05-19T04:07:34;14.20;;;6.18;;
79747;SDS011;69232;47.488;19.268;2023-05-19T04:09:59;10.35;;;6.22;;
79747;SDS011;69232;47.488;19.268;2023-05-19T04:12:26;11.70;;;6.00;;
79747;SDS011;69232;47.488;19.268;2023-05-19T04:14:52;10.70;;;6.20;;
79747;SDS011;69232;47.488;19.268;2023-05-19T04:17:17;13.93;;;7.47;;
79747;SDS011;69232;47.488;19.268;2023-05-19T04:19:42;15.30;;;6.72;;
79747;SDS011;69232;47.488;19.268;2023-05-19T04:22:08;18.55;;;7.53;;
79747;SDS011;69232;47.488;19.268;2023-05-19T04:24:33;15.32;;;8.13;;
79747;SDS011;69232;47.488;19.268;2023-05-19T04:26:59;16.63;;;8.80;;
79747;SDS011;69232;47.488;19.268;2023-05-19T04:29:26;20.17;;;9.23;;
79747;SDS011;69232;47.488;19.268;2023-05-19T04:31:56;17.52;;;8.50;;
79747;SDS011;69232;47.488;19.268;2023-05-19T04:34:21;15.88;;;7.90;;
79747;SDS011;69232;47.488;19.268;2023-05-19T04:36:47;19.65;;;8.93;;
79747;SDS011;69232;47.488;19.268;2023-05-19T04:39:13;14.65;;;8.40;;
79747;SDS011;69232;47.488;19.268;2023-05-19T04:41:38;15.18;;;8.52;;
79747;SDS011;69232;47.488;19.268;2023-05-19T04:44:07;22.23;;;10.52;;
79747;SDS011;69232;47.488;19.268;2023-05-19T04:46:37;23.05;;;12.45;;
79747;SDS011;69232;47.488;19.268;2023-05-19T04:49:02;17.17;;;9.13;;
79747;SDS011;69232;47.488;19.268;2023-05-19T04:51:28;19.10;;;10.23;;
79747;SDS011;69232;47.488;19.268;2023-05-19T04:53:55;19.65;;;10.20;;
79747;SDS011;69232;47.488;19.268;2023-05-19T04:56:23;18.55;;;9.45;;
79747;SDS011;69232;47.488;19.268;2023-05-19T04:58:49;17.20;;;8.48;;
79747;SDS011;69232;47.488;19.268;2023-05-19T05:01:14;17.48;;;7.72;;
79747;SDS011;69232;47.488;19.268;2023-05-19T05:03:40;18.95;;;8.73;;
79747;SDS011;69232;47.488;19.268;2023-05-19T05:06:06;14.32;;;8.68;;
79747;SDS011;69232;47.488;19.268;2023-05-19T05:08:32;14.27;;;7.28;;
79747;SDS011;69232;47.488;19.268;2023-05-19T05:10:58;15.07;;;6.88;;
79747;SDS011;69232;47.488;19.268;2023-05-19T05:13:23;15.48;;;7.88;;
79747;SDS011;69232;47.488;19.268;2023-05-19T05:15:49;16.42;;;8.13;;
79747;SDS011;69232;47.488;19.268;2023-05-19T05:18:20;14.93;;;7.60;;
79747;SDS011;69232;47.488;19.268;2023-05-19T05:20:45;16.60;;;8.15;;
79747;SDS011;69232;47.488;19.268;2023-05-19T05:23:12;16.70;;;7.72;;
79747;SDS011;69232;47.488;19.268;2023-05-19T05:25:41;12.25;;;7.45;;
79747;SDS011;69232;47.488;19.268;2023-05-19T05:28:06;19.23;;;8.48;;
79747;SDS011;69232;47.488;19.268;2023-05-19T05:30:32;20.25;;;8.98;;
79747;SDS011;69232;47.488;19.268;2023-05-19T05:32:58;16.30;;;8.40;;
79747;SDS011;69232;47.488;19.268;2023-05-19T05:35:24;17.35;;;8.10;;
79747;SDS011;69232;47.488;19.268;2023-05-19T05:37:49;21.02;;;8.70;;
79747;SDS011;69232;47.488;19.268;2023-05-19T05:40:15;17.20;;;9.60;;
79747;SDS011;69232;47.488;19.268;2023-05-19T05:42:41;18.45;;;9.85;;
79747;SDS011;69232;47.488;19.268;2023-05-19T05:45:07;19.50;;;9.43;;
79747;SDS011;69232;47.488;19.268;2023-05-19T05:47:33;23.02;;;10.63;;
79747;SDS011;69232;47.488;19.268;2023-05-19T05:50:02;26.15;;;10.38;;
79747;SDS011;69232;47.488;19.268;2023-05-19T05:52:29;18.00;;;8.45;;
79747;SDS011;69232;47.488;19.268;2023-05-19T05:54:55;20.73;;;9.18;;
79747;SDS011;69232;47.488;19.268;2023-05-19T05:57:20;17.88;;;8.82;;
79747;SDS011;69232;47.488;19.268;2023-05-19T05:59:46;19.38;;;9.30;;
79747;SDS011;69232;47.488;19.268;2023-05-19T06:02:12;17.83;;;9.00;;
79747;SDS011;69232;47.488;19.268;2023-05-19T06:04:37;17.27;;;9.52;;
79747;SDS011;69232;47.488;19.268;2023-05-19T06:07:03;16.52;;;8.48;;
79747;SDS011;69232;47.488;19.268;2023-05-19T06:09:29;15.25;;;8.13;;
79747;SDS011;69232;47.488;19.268;2023-05-19T06:11:56;19.02;;;8.90;;
79747;SDS011;69232;47.488;19.268;2023-05-19T06:14:22;19.67;;;10.75;;
79747;SDS011;69232;47.488;19.268;2023-05-19T06:16:47;20.52;;;10.40;;
79747;SDS011;69232;47.488;19.268;2023-05-19T06:19:13;16.23;;;9.65;;
79747;SDS011;69232;47.488;19.268;2023-05-19T06:21:38;18.35;;;10.68;;
79747;SDS011;69232;47.488;19.268;2023-05-19T06:24:04;20.77;;;10.50;;
79747;SDS011;69232;47.488;19.268;2023-05-19T06:26:29;17.70;;;10.07;;
79747;SDS011;69232;47.488;19.268;2023-05-19T06:28:55;18.13;;;9.95;;
79747;SDS011;69232;47.488;19.268;2023-05-19T06:31:20;20.10;;;9.95;;
79747;SDS011;69232;47.488;19.268;2023-05-19T06:33:46;16.27;;;9.10;;
79747;SDS011;69232;47.488;19.268;2023-05-19T06:36:12;17.48;;;9.25;;
79747;SDS011;69232;47.488;19.268;2023-05-19T06:38:37;15.05;;;9.35;;
79747;SDS011;69232;47.488;19.268;2023-05-19T06:41:03;15.52;;;9.75;;
79747;SDS011;69232;47.488;19.268;2023-05-19T06:43:28;14.68;;;9.38;;
79747;SDS011;69232;47.488;19.268;2023-05-19T06:45:54;16.35;;;9.85;;
79747;SDS011;69232;47.488;19.268;2023-05-19T06:48:20;18.38;;;9.85;;
79747;SDS011;69232;47.488;19.268;2023-05-19T06:50:45;17.23;;;9.45;;
79747;SDS011;69232;47.488;19.268;2023-05-19T06:53:11;16.98;;;9.75;;
79747;SDS011;69232;47.488;19.268;2023-05-19T06:55:36;18.92;;;10.25;;
79747;SDS011;69232;47.488;19.268;2023-05-19T06:58:01;13.07;;;8.70;;
79747;SDS011;69232;47.488;19.268;2023-05-19T07:00:27;17.92;;;10.02;;
79747;SDS011;69232;47.488;19.268;2023-05-19T07:02:52;18.63;;;9.55;;
79747;SDS011;69232;47.488;19.268;2023-05-19T07:05:18;14.95;;;9.02;;
79747;SDS011;69232;47.488;19.268;2023-05-19T07:07:43;14.50;;;8.48;;
79747;SDS011;69232;47.488;19.268;2023-05-19T07:10:09;16.50;;;8.90;;
79747;SDS011;69232;47.488;19.268;2023-05-19T07:12:34;15.50;;;8.25;;
79747;SDS011;69232;47.488;19.268;2023-05-19T07:15:00;14.50;;;8.63;;
79747;SDS011;69232;47.488;19.268;2023-05-19T07:17:25;16.30;;;8.23;;
79747;SDS011;69232;47.488;19.268;2023-05-19T07:19:50;15.43;;;9.77;;
79747;SDS011;69232;47.488;19.268;2023-05-19T07:22:16;14.40;;;8.75;;
79747;SDS011;69232;47.488;19.268;2023-05-19T07:24:41;14.43;;;8.95;;
79747;SDS011;69232;47.488;19.268;2023-05-19T07:27:08;14.07;;;9.77;;
79747;SDS011;69232;47.488;19.268;2023-05-19T07:29:33;14.10;;;7.53;;
79747;SDS011;69232;47.488;19.268;2023-05-19T07:31:59;13.73;;;7.63;;
79747;SDS011;69232;47.488;19.268;2023-05-19T07:34:24;13.57;;;8.32;;
79747;SDS011;69232;47.488;19.268;2023-05-19T07:36:50;18.33;;;8.27;;
79747;SDS011;69232;47.488;19.268;2023-05-19T07:39:16;11.70;;;7.30;;
79747;SDS011;69232;47.488;19.268;2023-05-19T07:41:41;11.43;;;6.60;;
79747;SDS011;69232;47.488;19.268;2023-05-19T07:44:07;21.83;;;7.57;;
79747;SDS011;69232;47.488;19.268;2023-05-19T07:46:33;18.45;;;6.22;;
79747;SDS011;69232;47.488;19.268;2023-05-19T07:48:58;6.72;;;5.10;;
79747;SDS011;69232;47.488;19.268;2023-05-19T07:51:24;10.43;;;5.25;;
79747;SDS011;69232;47.488;19.268;2023-05-19T07:53:49;7.80;;;5.07;;
79747;SDS011;69232;47.488;19.268;2023-05-19T07:56:15;13.48;;;7.07;;
79747;SDS011;69232;47.488;19.268;2023-05-19T07:58:40;8.48;;;5.68;;
79747;SDS011;69232;47.488;19.268;2023-05-19T08:01:06;6.55;;;4.43;;
79747;SDS011;69232;47.488;19.268;2023-05-19T08:03:31;10.63;;;6.47;;
79747;SDS011;69232;47.488;19.268;2023-05-19T08:05:57;9.32;;;6.90;;
79747;SDS011;69232;47.488;19.268;2023-05-19T08:08:23;9.07;;;6.00;;
79747;SDS011;69232;47.488;19.268;2023-05-19T08:10:48;9.70;;;5.15;;
79747;SDS011;69232;47.488;19.268;2023-05-19T08:13:13;9.45;;;6.03;;
79747;SDS011;69232;47.488;19.268;2023-05-19T08:15:39;8.00;;;4.88;;
79747;SDS011;69232;47.488;19.268;2023-05-19T08:18:05;7.70;;;5.45;;
79747;SDS011;69232;47.488;19.268;2023-05-19T08:20:30;7.90;;;5.45;;
79747;SDS011;69232;47.488;19.268;2023-05-19T08:22:56;8.38;;;5.38;;
79747;SDS011;69232;47.488;19.268;2023-05-19T08:25:21;8.85;;;5.15;;
79747;SDS011;69232;47.488;19.268;2023-05-19T08:27:47;7.70;;;4.10;;
79747;SDS011;69232;47.488;19.268;2023-05-19T08:30:12;7.10;;;3.38;;
79747;SDS011;69232;47.488;19.268;2023-05-19T08:32:38;5.20;;;3.80;;
79747;SDS011;69232;47.488;19.268;2023-05-19T08:35:03;6.70;;;4.22;;
79747;SDS011;69232;47.488;19.268;2023-05-19T08:37:29;3.58;;;3.08;;
79747;SDS011;69232;47.488;19.268;2023-05-19T08:39:54;6.07;;;3.88;;
79747;SDS011;69232;47.488;19.268;2023-05-19T08:42:21;4.68;;;3.65;;
79747;SDS011;69232;47.488;19.268;2023-05-19T08:44:46;7.25;;;4.18;;
79747;SDS011;69232;47.488;19.268;2023-05-19T08:47:12;5.40;;;3.65;;
79747;SDS011;69232;47.488;19.268;2023-05-19T08:49:44;6.38;;;4.35;;
79747;SDS011;69232;47.488;19.268;2023-05-19T08:54:42;6.13;;;4.38;;
79747;SDS011;69232;47.488;19.268;2023-05-19T08:59:36;11.50;;;4.80;;
79747;SDS011;69232;47.488;19.268;2023-05-19T09:02:02;6.78;;;4.00;;
79747;SDS011;69232;47.488;19.268;2023-05-19T09:04:28;7.32;;;4.10;;
79747;SDS011;69232;47.488;19.268;2023-05-19T09:06:53;4.30;;;3.55;;
79747;SDS011;69232;47.488;19.268;2023-05-19T09:09:19;7.30;;;3.97;;
79747;SDS011;69232;47.488;19.268;2023-05-19T09:11:45;5.93;;;4.55;;
79747;SDS011;69232;47.488;19.268;2023-05-19T09:14:11;6.90;;;4.20;;
79747;SDS011;69232;47.488;19.268;2023-05-19T09:16:36;6.50;;;4.70;;
79747;SDS011;69232;47.488;19.268;2023-05-19T09:19:01;5.53;;;3.88;;
79747;SDS011;69232;47.488;19.268;2023-05-19T09:21:30;5.32;;;4.03;;
79747;SDS011;69232;47.488;19.268;2023-05-19T09:23:56;7.80;;;4.10;;
79747;SDS011;69232;47.488;19.268;2023-05-19T09:26:23;5.63;;;3.80;;
79747;SDS011;69232;47.488;19.268;2023-05-19T09:28:48;9.98;;;5.05;;
79747;SDS011;69232;47.488;19.268;2023-05-19T09:31:14;6.53;;;4.18;;
79747;SDS011;69232;47.488;19.268;2023-05-19T09:33:40;6.45;;;4.88;;
79747;SDS011;69232;47.488;19.268;2023-05-19T09:36:07;7.07;;;3.85;;
79747;SDS011;69232;47.488;19.268;2023-05-19T09:38:33;4.13;;;3.50;;
79747;SDS011;69232;47.488;19.268;2023-05-19T09:41:00;6.30;;;3.28;;
79747;SDS011;69232;47.488;19.268;2023-05-19T09:43:29;6.20;;;3.45;;
79747;SDS011;69232;47.488;19.268;2023-05-19T09:45:59;6.80;;;3.65;;
79747;SDS011;69232;47.488;19.268;2023-05-19T09:48:27;5.80;;;3.83;;
79747;SDS011;69232;47.488;19.268;2023-05-19T09:50:54;6.20;;;3.60;;
79747;SDS011;69232;47.488;19.268;2023-05-19T09:53:21;5.03;;;3.70;;
79747;SDS011;69232;47.488;19.268;2023-05-19T09:55:47;5.25;;;3.63;;
79747;SDS011;69232;47.488;19.268;2023-05-19T09:58:16;3.40;;;3.10;;
79747;SDS011;69232;47.488;19.268;2023-05-19T10:00:43;8.10;;;3.60;;
79747;SDS011;69232;47.488;19.268;2023-05-19T10:03:11;4.53;;;3.10;;
79747;SDS011;69232;47.488;19.268;2023-05-19T10:05:37;5.45;;;2.80;;
79747;SDS011;69232;47.488;19.268;2023-05-19T10:08:04;6.35;;;2.95;;
79747;SDS011;69232;47.488;19.268;2023-05-19T10:10:32;5.32;;;3.22;;
79747;SDS011;69232;47.488;19.268;2023-05-19T10:12:58;3.97;;;3.22;;
79747;SDS011;69232;47.488;19.268;2023-05-19T10:15:24;4.07;;;3.33;;
79747;SDS011;69232;47.488;19.268;2023-05-19T10:17:50;11.35;;;3.78;;
79747;SDS011;69232;47.488;19.268;2023-05-19T10:20:16;4.38;;;3.30;;
79747;SDS011;69232;47.488;19.268;2023-05-19T10:22:42;4.25;;;3.10;;
79747;SDS011;69232;47.488;19.268;2023-05-19T10:25:08;5.90;;;3.50;;
79747;SDS011;69232;47.488;19.268;2023-05-19T10:27:39;3.72;;;3.38;;
79747;SDS011;69232;47.488;19.268;2023-05-19T10:30:12;5.32;;;2.88;;
79747;SDS011;69232;47.488;19.268;2023-05-19T10:32:41;4.68;;;2.70;;
79747;SDS011;69232;47.488;19.268;2023-05-19T10:37:36;8.45;;;3.22;;
79747;SDS011;69232;47.488;19.268;2023-05-19T10:40:08;6.15;;;2.90;;
79747;SDS011;69232;47.488;19.268;2023-05-19T10:42:52;6.22;;;3.08;;
79747;SDS011;69232;47.488;19.268;2023-05-19T10:45:27;6.45;;;2.78;;
79747;SDS011;69232;47.488;19.268;2023-05-19T10:47:53;8.35;;;2.95;;
79747;SDS011;69232;47.488;19.268;2023-05-19T10:50:19;5.05;;;3.13;;
79747;SDS011;69232;47.488;19.268;2023-05-19T10:52:44;4.00;;;3.03;;
79747;SDS011;69232;47.488;19.268;2023-05-19T10:58:13;2.83;;;2.58;;
79747;SDS011;69232;47.488;19.268;2023-05-19T11:00:39;5.70;;;3.03;;
79747;SDS011;69232;47.488;19.268;2023-05-19T11:03:12;6.03;;;2.95;;
79747;SDS011;69232;47.488;19.268;2023-05-19T11:05:39;3.05;;;2.65;;
79747;SDS011;69232;47.488;19.268;2023-05-19T11:08:05;4.07;;;3.13;;
79747;SDS011;69232;47.488;19.268;2023-05-19T11:10:32;4.32;;;3.08;;
79747;SDS011;69232;47.488;19.268;2023-05-19T11:12:58;3.63;;;2.85;;
79747;SDS011;69232;47.488;19.268;2023-05-19T11:15:26;2.80;;;2.50;;
79747;SDS011;69232;47.488;19.268;2023-05-19T11:17:52;4.90;;;2.88;;
79747;SDS011;69232;47.488;19.268;2023-05-19T11:20:26;4.68;;;3.08;;
79747;SDS011;69232;47.488;19.268;2023-05-19T11:25:43;3.28;;;2.30;;
79747;SDS011;69232;47.488;19.268;2023-05-19T11:28:16;4.38;;;2.70;;
79747;SDS011;69232;47.488;19.268;2023-05-19T11:31:01;4.68;;;2.72;;
79747;SDS011;69232;47.488;19.268;2023-05-19T11:33:26;5.75;;;2.92;;
79747;SDS011;69232;47.488;19.268;2023-05-19T11:35:53;3.85;;;2.75;;
79747;SDS011;69232;47.488;19.268;2023-05-19T11:38:24;2.78;;;2.50;;
79747;SDS011;69232;47.488;19.268;2023-05-19T11:40:53;5.05;;;2.92;;
79747;SDS011;69232;47.488;19.268;2023-05-19T11:43:23;4.75;;;2.50;;
79747;SDS011;69232;47.488;19.268;2023-05-19T11:45:49;5.78;;;2.85;;
79747;SDS011;69232;47.488;19.268;2023-05-19T11:48:15;4.57;;;3.03;;
79747;SDS011;69232;47.488;19.268;2023-05-19T11:50:41;4.63;;;2.67;;
79747;SDS011;69232;47.488;19.268;2023-05-19T11:53:07;10.77;;;2.78;;
79747;SDS011;69232;47.488;19.268;2023-05-19T11:55:36;7.68;;;2.70;;
79747;SDS011;69232;47.488;19.268;2023-05-19T11:58:07;5.60;;;2.92;;
79747;SDS011;69232;47.488;19.268;2023-05-19T12:00:38;3.47;;;2.53;;
79747;SDS011;69232;47.488;19.268;2023-05-19T12:03:05;4.30;;;2.53;;
79747;SDS011;69232;47.488;19.268;2023-05-19T12:05:31;5.30;;;2.75;;
79747;SDS011;69232;47.488;19.268;2023-05-19T12:07:57;2.83;;;2.40;;
79747;SDS011;69232;47.488;19.268;2023-05-19T12:10:25;4.35;;;2.60;;
79747;SDS011;69232;47.488;19.268;2023-05-19T12:12:52;3.63;;;2.42;;
79747;SDS011;69232;47.488;19.268;2023-05-19T12:15:20;3.88;;;2.63;;
79747;SDS011;69232;47.488;19.268;2023-05-19T12:17:50;5.88;;;3.75;;
79747;SDS011;69232;47.488;19.268;2023-05-19T12:20:20;3.90;;;2.40;;
79747;SDS011;69232;47.488;19.268;2023-05-19T12:22:46;5.13;;;2.63;;
79747;SDS011;69232;47.488;19.268;2023-05-19T12:25:12;5.35;;;2.95;;
79747;SDS011;69232;47.488;19.268;2023-05-19T12:27:41;3.35;;;2.15;;
79747;SDS011;69232;47.488;19.268;2023-05-19T12:30:07;4.47;;;2.20;;
79747;SDS011;69232;47.488;19.268;2023-05-19T12:32:33;5.20;;;2.33;;
79747;SDS011;69232;47.488;19.268;2023-05-19T12:35:02;4.57;;;2.45;;
79747;SDS011;69232;47.488;19.268;2023-05-19T12:37:28;5.78;;;2.22;;
79747;SDS011;69232;47.488;19.268;2023-05-19T12:39:54;3.97;;;2.30;;
79747;SDS011;69232;47.488;19.268;2023-05-19T12:42:20;2.33;;;2.05;;
79747;SDS011;69232;47.488;19.268;2023-05-19T12:44:47;4.50;;;2.70;;
79747;SDS011;69232;47.488;19.268;2023-05-19T12:47:17;9.95;;;3.10;;
79747;SDS011;69232;47.488;19.268;2023-05-19T12:49:52;3.15;;;2.40;;
79747;SDS011;69232;47.488;19.268;2023-05-19T12:52:25;3.80;;;2.50;;
79747;SDS011;69232;47.488;19.268;2023-05-19T12:54:58;7.93;;;2.60;;
79747;SDS011;69232;47.488;19.268;2023-05-19T12:57:25;6.45;;;2.15;;
79747;SDS011;69232;47.488;19.268;2023-05-19T12:59:51;4.28;;;2.25;;
79747;SDS011;69232;47.488;19.268;2023-05-19T13:02:17;2.60;;;2.22;;
79747;SDS011;69232;47.488;19.268;2023-05-19T13:04:43;3.42;;;2.22;;
79747;SDS011;69232;47.488;19.268;2023-05-19T13:07:08;5.03;;;2.20;;
79747;SDS011;69232;47.488;19.268;2023-05-19T13:09:34;6.15;;;2.15;;
79747;SDS011;69232;47.488;19.268;2023-05-19T13:12:00;2.35;;;2.00;;
79747;SDS011;69232;47.488;19.268;2023-05-19T13:14:26;2.92;;;1.98;;
79747;SDS011;69232;47.488;19.268;2023-05-19T13:16:51;2.90;;;2.28;;
79747;SDS011;69232;47.488;19.268;2023-05-19T13:19:17;4.35;;;2.20;;
79747;SDS011;69232;47.488;19.268;2023-05-19T13:21:43;2.83;;;2.10;;
79747;SDS011;69232;47.488;19.268;2023-05-19T13:24:11;4.38;;;2.22;;
79747;SDS011;69232;47.488;19.268;2023-05-19T13:26:37;2.63;;;1.88;;
79747;SDS011;69232;47.488;19.268;2023-05-19T13:29:03;4.40;;;2.30;;
79747;SDS011;69232;47.488;19.268;2023-05-19T13:31:29;2.60;;;2.40;;
79747;SDS011;69232;47.488;19.268;2023-05-19T13:33:54;3.53;;;2.08;;
79747;SDS011;69232;47.488;19.268;2023-05-19T13:36:20;3.63;;;2.10;;
79747;SDS011;69232;47.488;19.268;2023-05-19T13:38:45;2.97;;;1.95;;
79747;SDS011;69232;47.488;19.268;2023-05-19T13:41:10;4.40;;;2.30;;
79747;SDS011;69232;47.488;19.268;2023-05-19T13:43:36;5.43;;;2.17;;
79747;SDS011;69232;47.488;19.268;2023-05-19T13:46:01;3.15;;;2.38;;
79747;SDS011;69232;47.488;19.268;2023-05-19T13:48:27;3.72;;;2.20;;
79747;SDS011;69232;47.488;19.268;2023-05-19T13:50:52;3.90;;;2.00;;
79747;SDS011;69232;47.488;19.268;2023-05-19T13:53:19;5.20;;;2.40;;
79747;SDS011;69232;47.488;19.268;2023-05-19T13:55:45;5.28;;;3.05;;
79747;SDS011;69232;47.488;19.268;2023-05-19T13:58:10;6.00;;;2.10;;
79747;SDS011;69232;47.488;19.268;2023-05-19T14:00:37;5.28;;;2.65;;
79747;SDS011;69232;47.488;19.268;2023-05-19T14:03:03;3.08;;;1.92;;
79747;SDS011;69232;47.488;19.268;2023-05-19T14:05:29;8.18;;;2.80;;
79747;SDS011;69232;47.488;19.268;2023-05-19T14:07:55;5.03;;;2.10;;
79747;SDS011;69232;47.488;19.268;2023-05-19T14:10:20;4.18;;;2.17;;
79747;SDS011;69232;47.488;19.268;2023-05-19T14:12:45;6.68;;;2.28;;
79747;SDS011;69232;47.488;19.268;2023-05-19T14:15:11;2.40;;;1.85;;
79747;SDS011;69232;47.488;19.268;2023-05-19T14:17:36;7.07;;;2.20;;
79747;SDS011;69232;47.488;19.268;2023-05-19T14:20:02;5.78;;;2.63;;
79747;SDS011;69232;47.488;19.268;2023-05-19T14:22:28;3.65;;;2.13;;
79747;SDS011;69232;47.488;19.268;2023-05-19T14:24:53;2.42;;;2.08;;
79747;SDS011;69232;47.488;19.268;2023-05-19T14:27:19;2.05;;;1.85;;
79747;SDS011;69232;47.488;19.268;2023-05-19T14:29:44;4.53;;;2.60;;
79747;SDS011;69232;47.488;19.268;2023-05-19T14:32:10;2.70;;;2.15;;
79747;SDS011;69232;47.488;19.268;2023-05-19T14:34:35;2.95;;;2.35;;
79747;SDS011;69232;47.488;19.268;2023-05-19T14:37:01;3.85;;;2.60;;
79747;SDS011;69232;47.488;19.268;2023-05-19T14:39:27;3.50;;;2.53;;
79747;SDS011;69232;47.488;19.268;2023-05-19T14:41:53;5.28;;;2.55;;
79747;SDS011;69232;47.488;19.268;2023-05-19T14:44:20;3.00;;;2.40;;
79747;SDS011;69232;47.488;19.268;2023-05-19T14:46:45;4.07;;;2.40;;
79747;SDS011;69232;47.488;19.268;2023-05-19T14:49:11;4.70;;;2.70;;
79747;SDS011;69232;47.488;19.268;2023-05-19T14:51:36;3.28;;;2.45;;
79747;SDS011;69232;47.488;19.268;2023-05-19T14:54:01;4.88;;;2.60;;
79747;SDS011;69232;47.488;19.268;2023-05-19T14:56:27;3.30;;;2.60;;
79747;SDS011;69232;47.488;19.268;2023-05-19T14:58:52;6.57;;;2.90;;
79747;SDS011;69232;47.488;19.268;2023-05-19T15:01:18;4.05;;;2.33;;
79747;SDS011;69232;47.488;19.268;2023-05-19T15:03:43;6.38;;;2.67;;